createdAt,value
2023-05-21T00:02:13.207Z,98964.88
2023-05-21T00:04:42.258Z,98963.44
2023-05-21T00:07:10.976Z,98967.63
2023-05-21T00:09:39.791Z,98969.56
2023-05-21T00:12:09.999Z,98973.78
2023-05-21T00:14:38.491Z,98979.28
2023-05-21T00:17:07.602Z,98984.28
2023-05-21T00:19:36.079Z,98981.31
2023-05-21T00:22:05.414Z,98991.91
2023-05-21T00:24:33.827Z,98987.47
2023-05-21T00:27:02.235Z,98989.59
2023-05-21T00:29:31.085Z,98993.03
2023-05-21T00:31:59.497Z,98985.94
2023-05-21T00:34:28.281Z,98987.31
2023-05-21T00:36:58.201Z,98990.56
2023-05-21T00:39:26.689Z,98996.06
2023-05-21T00:41:55.109Z,98995.19
2023-05-21T00:44:24.668Z,98998.06
2023-05-21T00:46:54.660Z,98995.66
2023-05-21T00:49:25.389Z,98999.84
2023-05-21T00:51:53.986Z,99002.72
2023-05-21T00:54:23.150Z,99003.88
2023-05-21T00:56:52.563Z,99009.38
2023-05-21T00:59:21.492Z,99015.63
2023-05-21T01:01:56.978Z,99013.97
2023-05-21T01:04:25.665Z,99018.91
2023-05-21T01:06:54.536Z,99026.50
2023-05-21T01:09:23.325Z,99031.22
2023-05-21T01:11:53.102Z,99028.25
2023-05-21T01:14:23.836Z,99037.34
2023-05-21T01:16:53.355Z,99034.34
2023-05-21T01:19:24.581Z,99037.19
2023-05-21T01:22:03.568Z,99035.75
2023-05-21T01:24:32.601Z,99035.78
2023-05-21T01:27:04.092Z,99032.22
2023-05-21T01:29:32.606Z,99034.16
2023-05-21T01:32:15.982Z,99032.88
2023-05-21T01:34:52.706Z,99034.59
2023-05-21T01:37:51.860Z,99041.03
2023-05-21T01:40:39.236Z,99041.63
2023-05-21T01:43:08.976Z,99054.28
2023-05-21T01:45:42.968Z,99053.34
2023-05-21T01:48:13.491Z,99045.22
2023-05-21T01:50:46.619Z,99047.53
2023-05-21T01:53:17.194Z,99044.72
2023-05-21T01:55:46.862Z,99046.06
2023-05-21T01:58:16.683Z,99049.47
2023-05-21T02:00:46.422Z,99056.06
2023-05-21T02:03:18.463Z,99057.97
2023-05-21T02:05:48.619Z,99066.31
2023-05-21T02:08:17.132Z,99061.03
2023-05-21T02:10:45.576Z,99052.69
2023-05-21T02:13:14.030Z,99057.59
2023-05-21T02:15:43.312Z,99061.38
2023-05-21T02:18:12.274Z,99058.91
2023-05-21T02:20:40.729Z,99057.94
2023-05-21T02:23:09.704Z,99064.78
2023-05-21T02:25:38.502Z,99067.97
2023-05-21T02:28:07.758Z,99078.53
2023-05-21T02:30:36.304Z,99082.69
2023-05-21T02:33:04.832Z,99079.47
2023-05-21T02:35:33.658Z,99082.13
2023-05-21T02:38:03.937Z,99078.16
2023-05-21T02:40:34.035Z,99078.69
2023-05-21T02:43:02.433Z,99077.72
2023-05-21T02:45:31.868Z,99082.44
2023-05-21T02:48:00.303Z,99080.91
2023-05-21T02:50:28.868Z,99076.53
2023-05-21T02:52:57.254Z,99071.41
2023-05-21T02:55:25.627Z,99076.13
2023-05-21T02:57:53.985Z,99080.25
2023-05-21T03:00:22.442Z,99078.56
2023-05-21T03:02:50.876Z,99072.81
2023-05-21T03:05:19.390Z,99078.47
2023-05-21T03:07:48.148Z,99077.81
2023-05-21T03:10:16.925Z,99074.22
2023-05-21T03:12:45.359Z,99069.22
2023-05-21T03:15:15.703Z,99066.94
2023-05-21T03:17:45.376Z,99063.31
2023-05-21T03:20:19.620Z,99062.66
2023-05-21T03:22:49.164Z,99064.69
2023-05-21T03:25:17.558Z,99061.78
2023-05-21T03:27:45.993Z,99059.81
2023-05-21T03:30:14.616Z,99059.75
2023-05-21T03:32:45.923Z,99061.03
2023-05-21T03:35:14.987Z,99061.13
2023-05-21T03:37:43.440Z,99069.59
2023-05-21T03:40:12.227Z,99058.88
2023-05-21T03:42:40.601Z,99053.88
2023-05-21T03:45:10.305Z,99047.34
2023-05-21T03:47:38.762Z,99059.41
2023-05-21T03:50:07.835Z,99054.53
2023-05-21T03:52:36.347Z,99053.13
2023-05-21T03:55:04.951Z,99055.44
2023-05-21T03:57:33.753Z,99055.53
2023-05-21T04:00:02.212Z,99056.38
2023-05-21T04:02:30.764Z,99051.47
2023-05-21T04:04:59.301Z,99051.53
2023-05-21T04:07:28.059Z,99045.72
2023-05-21T04:09:56.497Z,99046.50
2023-05-21T04:12:24.932Z,99041.81
2023-05-21T04:14:53.353Z,99049.78
2023-05-21T04:17:21.953Z,99039.16
2023-05-21T04:19:50.418Z,99037.84
2023-05-21T04:22:18.798Z,99035.75
2023-05-21T04:24:47.487Z,99034.63
2023-05-21T04:27:17.564Z,99034.94
2023-05-21T04:29:46.012Z,99033.59
2023-05-21T04:32:16.084Z,99025.47
2023-05-21T04:34:44.885Z,99024.28
2023-05-21T04:37:13.431Z,99018.75
2023-05-21T04:39:42.045Z,99010.19
2023-05-21T04:42:11.800Z,99004.59
2023-05-21T04:44:41.325Z,99005.78
2023-05-21T04:47:09.896Z,99008.78
2023-05-21T04:49:38.396Z,99001.00
2023-05-21T04:52:06.923Z,98997.06
2023-05-21T04:54:37.463Z,98991.66
2023-05-21T04:57:06.757Z,98991.63
2023-05-21T04:59:35.754Z,98987.97
2023-05-21T05:02:04.500Z,98985.41
2023-05-21T05:04:33.354Z,98983.09
2023-05-21T05:07:01.984Z,98977.25
2023-05-21T05:09:31.314Z,98984.41
2023-05-21T05:11:59.783Z,98973.66
2023-05-21T05:14:28.213Z,98972.88
2023-05-21T05:17:00.827Z,98972.66
2023-05-21T05:19:29.636Z,98967.50
2023-05-21T05:21:58.196Z,98960.88
2023-05-21T05:24:26.591Z,98959.16
2023-05-21T05:26:54.973Z,98947.97
2023-05-21T05:29:23.423Z,98954.84
2023-05-21T05:31:51.847Z,98943.66
2023-05-21T05:34:20.914Z,98941.16
2023-05-21T05:36:49.277Z,98934.56
2023-05-21T05:39:17.691Z,98931.47
2023-05-21T05:41:46.055Z,98930.38
2023-05-21T05:44:14.874Z,98926.44
2023-05-21T05:46:43.436Z,98928.81
2023-05-21T05:49:11.938Z,98916.28
2023-05-21T05:51:40.365Z,98924.63
2023-05-21T05:54:10.215Z,98918.41
2023-05-21T05:56:38.587Z,98913.44
2023-05-21T05:59:07.069Z,98912.81
2023-05-21T06:01:35.520Z,98909.81
2023-05-21T06:04:03.913Z,98901.38
2023-05-21T06:06:32.614Z,98897.75
2023-05-21T06:09:01.659Z,98892.00
2023-05-21T06:11:30.672Z,98887.41
2023-05-21T06:14:01.828Z,98886.31
2023-05-21T06:16:32.461Z,98876.75
2023-05-21T06:19:01.234Z,98875.91
2023-05-21T06:21:29.742Z,98881.25
2023-05-21T06:23:58.146Z,98870.78
2023-05-21T06:26:27.289Z,98869.41
2023-05-21T06:28:55.669Z,98873.22
2023-05-21T06:31:24.103Z,98861.09
2023-05-21T06:33:52.642Z,98856.09
2023-05-21T06:36:21.367Z,98856.09
2023-05-21T06:38:50.057Z,98845.97
2023-05-21T06:41:18.494Z,98842.41
2023-05-21T06:43:47.133Z,98840.66
2023-05-21T06:46:15.790Z,98836.78
2023-05-21T06:48:45.782Z,98830.81
2023-05-21T06:51:14.387Z,98821.31
2023-05-21T06:53:43.040Z,98821.13
2023-05-21T06:56:11.463Z,98816.44
2023-05-21T06:58:39.852Z,98817.03
2023-05-21T07:01:08.490Z,98814.91
2023-05-21T07:03:37.955Z,98810.97
2023-05-21T07:06:06.455Z,98805.50
2023-05-21T07:08:35.048Z,98806.44
2023-05-21T07:11:03.489Z,98796.75
2023-05-21T07:13:32.210Z,98791.72
2023-05-21T07:16:00.626Z,98790.13
2023-05-21T07:18:29.191Z,98787.06
2023-05-21T07:20:58.112Z,98782.78
2023-05-21T07:23:26.726Z,98780.50
2023-05-21T07:25:55.405Z,98779.50
2023-05-21T07:28:23.876Z,98779.69
2023-05-21T07:30:52.278Z,98782.84
2023-05-21T07:33:21.630Z,98775.91
2023-05-21T07:35:50.358Z,98773.63
2023-05-21T07:38:18.702Z,98781.09
2023-05-21T07:40:48.289Z,98780.22
2023-05-21T07:43:16.816Z,98772.75
2023-05-21T07:45:45.217Z,98765.72
2023-05-21T07:48:13.657Z,98769.66
2023-05-21T07:50:42.568Z,98759.00
2023-05-21T07:53:11.002Z,98757.22
2023-05-21T07:55:39.424Z,98751.09
2023-05-21T07:58:08.421Z,98744.97
2023-05-21T08:00:48.208Z,98745.28
2023-05-21T08:03:17.478Z,98734.53
2023-05-21T08:05:49.614Z,98729.78
2023-05-21T08:08:18.862Z,98724.84
2023-05-21T08:10:48.796Z,98715.13
2023-05-21T08:13:18.114Z,98716.16
2023-05-21T08:15:46.678Z,98704.88
2023-05-21T08:18:15.103Z,98705.19
2023-05-21T08:20:43.562Z,98706.06
2023-05-21T08:23:12.025Z,98700.50
2023-05-21T08:25:40.442Z,98696.63
2023-05-21T08:28:08.967Z,98692.25
2023-05-21T08:30:37.583Z,98683.09
2023-05-21T08:33:06.066Z,98685.66
2023-05-21T08:35:34.723Z,98680.56
2023-05-21T08:38:03.312Z,98679.69
2023-05-21T08:40:32.068Z,98670.38
2023-05-21T08:43:03.512Z,98670.22
2023-05-21T08:45:39.507Z,98664.22
2023-05-21T08:48:10.189Z,98671.91
2023-05-21T08:50:39.130Z,98670.41
2023-05-21T08:53:16.009Z,98669.66
2023-05-21T08:55:55.055Z,98674.06
2023-05-21T08:58:23.837Z,98668.66
2023-05-21T09:00:52.490Z,98658.81
2023-05-21T09:03:23.289Z,98659.00
2023-05-21T09:05:52.709Z,98659.47
2023-05-21T09:08:28.699Z,98659.91
2023-05-21T09:10:57.222Z,98654.81
2023-05-21T09:13:28.493Z,98652.56
2023-05-21T09:15:57.124Z,98649.13
2023-05-21T09:18:25.540Z,98639.38
2023-05-21T09:20:54.971Z,98644.63
2023-05-21T09:23:23.408Z,98652.28
2023-05-21T09:25:54.067Z,98647.19
2023-05-21T09:28:22.623Z,98650.34
2023-05-21T09:30:55.139Z,98648.53
2023-05-21T09:33:28.613Z,98637.47
2023-05-21T09:35:57.528Z,98640.91
2023-05-21T09:38:30.446Z,98633.59
2023-05-21T09:40:59.057Z,98629.97
2023-05-21T09:43:27.776Z,98635.41
2023-05-21T09:46:01.839Z,98637.50
2023-05-21T09:48:38.055Z,98640.97
2023-05-21T09:51:13.388Z,98640.78
2023-05-21T09:53:50.453Z,98641.41
2023-05-21T09:56:27.451Z,98642.75
2023-05-21T09:58:57.796Z,98637.66
2023-05-21T10:01:26.529Z,98632.56
2023-05-21T10:03:59.842Z,98635.41
2023-05-21T10:06:29.980Z,98641.72
2023-05-21T10:09:03.896Z,98634.66
2023-05-21T10:11:35.066Z,98631.06
2023-05-21T10:14:11.088Z,98635.28
2023-05-21T10:16:39.606Z,98635.13
2023-05-21T10:19:11.763Z,98638.59
2023-05-21T10:21:41.087Z,98642.78
2023-05-21T10:24:11.152Z,98644.75
2023-05-21T10:26:40.761Z,98640.25
2023-05-21T10:29:10.282Z,98633.53
2023-05-21T10:31:41.742Z,98652.97
2023-05-21T10:34:12.740Z,98649.69
2023-05-21T10:36:42.435Z,98655.72
2023-05-21T10:39:13.974Z,98662.47
2023-05-21T10:42:02.490Z,98664.13
2023-05-21T10:44:36.929Z,98668.00
2023-05-21T10:47:27.766Z,98673.84
2023-05-21T10:50:07.542Z,98675.50
2023-05-21T10:53:03.694Z,98682.81
2023-05-21T10:55:50.139Z,98687.28
2023-05-21T10:58:44.460Z,98694.63
2023-05-21T11:01:15.420Z,98697.03
2023-05-21T11:03:44.380Z,98699.56
2023-05-21T11:06:13.159Z,98696.25
2023-05-21T11:08:49.231Z,98702.97
2023-05-21T11:11:47.024Z,98703.25
2023-05-21T11:14:33.510Z,98703.41
2023-05-21T11:17:04.081Z,98710.09
2023-05-21T11:19:38.307Z,98713.19
2023-05-21T11:22:27.824Z,98719.91
2023-05-21T11:24:57.578Z,98728.72
2023-05-21T11:27:35.180Z,98726.16
2023-05-21T11:30:23.703Z,98727.78
2023-05-21T11:33:14.623Z,98725.94
2023-05-21T11:36:04.389Z,98721.28
2023-05-21T11:38:33.941Z,98725.00
2023-05-21T11:41:05.702Z,98720.91
2023-05-21T11:43:34.152Z,98733.69
2023-05-21T11:46:03.636Z,98734.53
2023-05-21T11:48:33.201Z,98750.94
2023-05-21T11:51:03.152Z,98754.47
2023-05-21T11:53:32.054Z,98757.38
2023-05-21T11:56:03.307Z,98767.47
2023-05-21T11:58:32.845Z,98775.34
2023-05-21T12:01:01.211Z,98789.78
2023-05-21T12:03:31.306Z,98788.09
2023-05-21T12:06:07.534Z,98797.59
2023-05-21T12:08:36.814Z,98794.25
2023-05-21T12:11:05.721Z,98802.28
2023-05-21T12:13:34.154Z,98803.28
2023-05-21T12:16:06.560Z,98805.00
2023-05-21T12:18:35.352Z,98814.50
2023-05-21T12:21:03.843Z,98809.63
2023-05-21T12:23:32.535Z,98816.28
2023-05-21T12:26:01.206Z,98820.13
2023-05-21T12:28:29.966Z,98835.25
2023-05-21T12:30:58.336Z,98834.75
2023-05-21T12:33:27.122Z,98836.66
2023-05-21T12:35:55.638Z,98839.72
2023-05-21T12:38:24.083Z,98842.22
2023-05-21T12:40:52.503Z,98850.38
2023-05-21T12:43:21.382Z,98863.63
2023-05-21T12:45:49.881Z,98856.81
2023-05-21T12:48:18.316Z,98860.03
2023-05-21T12:50:46.831Z,98866.28
2023-05-21T12:53:15.459Z,98862.16
2023-05-21T12:55:43.872Z,98871.06
2023-05-21T12:58:15.393Z,98864.28
2023-05-21T13:00:45.059Z,98862.41
2023-05-21T13:03:13.732Z,98870.34
2023-05-21T13:05:43.003Z,98878.06
2023-05-21T13:08:12.265Z,98900.56
2023-05-21T13:10:40.688Z,98899.06
2023-05-21T13:13:09.150Z,98906.63
2023-05-21T13:15:37.675Z,98907.19
2023-05-21T13:18:06.899Z,98913.44
2023-05-21T13:20:35.461Z,98913.09
2023-05-21T13:23:07.193Z,98915.75
2023-05-21T13:25:36.809Z,98915.56
2023-05-21T13:28:06.516Z,98932.19
2023-05-21T13:30:35.137Z,98945.44
2023-05-21T13:33:04.352Z,98951.28
2023-05-21T13:35:33.295Z,98950.91
2023-05-21T13:38:01.710Z,98955.59
2023-05-21T13:40:30.176Z,98955.03
2023-05-21T13:42:58.831Z,98956.56
2023-05-21T13:45:29.952Z,98963.00
2023-05-21T13:47:58.476Z,98957.50
2023-05-21T13:50:27.050Z,98965.25
2023-05-21T13:52:55.521Z,98961.66
2023-05-21T13:55:24.375Z,98967.16
2023-05-21T13:57:52.887Z,98977.69
2023-05-21T14:00:21.339Z,98987.91
2023-05-21T14:02:51.070Z,98998.28
2023-05-21T14:05:19.679Z,98997.53
2023-05-21T14:07:49.257Z,99005.66
2023-05-21T14:10:17.989Z,99005.47
2023-05-21T14:12:47.504Z,99004.53
2023-05-21T14:15:16.059Z,99017.75
2023-05-21T14:17:44.695Z,99019.44
2023-05-21T14:20:13.682Z,99030.38
2023-05-21T14:22:42.126Z,99030.38
2023-05-21T14:25:11.225Z,99028.69
2023-05-21T14:27:39.756Z,99034.72
2023-05-21T14:30:09.107Z,99053.03
2023-05-21T14:32:37.735Z,99059.06
2023-05-21T14:35:06.955Z,99064.16
2023-05-21T14:37:35.468Z,99065.31
2023-05-21T14:40:06.448Z,99067.53
2023-05-21T14:42:37.584Z,99074.47
2023-05-21T14:45:18.264Z,99075.97
2023-05-21T14:47:48.746Z,99081.06
2023-05-21T14:50:18.374Z,99085.59
2023-05-21T14:52:47.154Z,99079.31
2023-05-21T14:55:17.491Z,99087.03
2023-05-21T14:57:46.249Z,99087.41
2023-05-21T15:00:15.132Z,99090.41
2023-05-21T15:02:43.662Z,99088.50
2023-05-21T15:05:12.249Z,99095.81
2023-05-21T15:07:40.783Z,99094.66
2023-05-21T15:10:10.313Z,99094.22
2023-05-21T15:12:42.518Z,99090.25
2023-05-21T15:15:13.137Z,99092.88
2023-05-21T15:17:41.990Z,99089.09
2023-05-21T15:20:11.369Z,99084.19
2023-05-21T15:22:40.496Z,99082.69
2023-05-21T15:25:09.310Z,99084.75
2023-05-21T15:27:37.801Z,99077.03
2023-05-21T15:30:07.919Z,99086.28
2023-05-21T15:32:36.443Z,99085.53
2023-05-21T15:35:05.066Z,99093.44
2023-05-21T15:37:34.073Z,99082.88
2023-05-21T15:40:03.404Z,99073.66
2023-05-21T15:42:32.610Z,99075.91
2023-05-21T15:45:01.141Z,99076.13
2023-05-21T15:47:29.650Z,99077.63
2023-05-21T15:49:59.650Z,99084.25
2023-05-21T15:52:28.151Z,99082.72
2023-05-21T15:54:56.642Z,99088.94
2023-05-21T15:57:25.057Z,99085.34
2023-05-21T15:59:53.558Z,99090.81
2023-05-21T16:02:22.026Z,99083.66
2023-05-21T16:04:52.652Z,99077.59
2023-05-21T16:07:21.108Z,99080.78
2023-05-21T16:09:49.610Z,99076.22
2023-05-21T16:12:18.523Z,99071.50
2023-05-21T16:14:50.965Z,99064.88
2023-05-21T16:17:23.111Z,99056.56
2023-05-21T16:19:51.663Z,99052.78
2023-05-21T16:22:21.664Z,99058.78
2023-05-21T16:24:50.156Z,99049.38
2023-05-21T16:27:18.734Z,99048.94
2023-05-21T16:29:47.372Z,99055.16
2023-05-21T16:32:16.132Z,99045.91
2023-05-21T16:34:45.689Z,99051.56
2023-05-21T16:37:14.231Z,99046.66
2023-05-21T16:39:42.648Z,99050.81
2023-05-21T16:42:11.065Z,99049.50
2023-05-21T16:44:40.208Z,99050.81
2023-05-21T16:47:08.628Z,99052.13
2023-05-21T16:49:37.120Z,99042.69
2023-05-21T16:52:06.256Z,99043.25
2023-05-21T16:54:35.323Z,99040.41
2023-05-21T16:57:03.775Z,99032.28
2023-05-21T16:59:32.217Z,99042.06
2023-05-21T17:02:00.884Z,99036.78
2023-05-21T17:04:30.017Z,99035.81
2023-05-21T17:06:58.554Z,99039.00
2023-05-21T17:09:27.187Z,99027.50
2023-05-21T17:11:55.620Z,99026.53
2023-05-21T17:14:33.827Z,99017.09
2023-05-21T17:17:03.443Z,99012.00
2023-05-21T17:19:32.345Z,99015.16
2023-05-21T17:22:00.894Z,99010.06
2023-05-21T17:24:29.421Z,99009.13
2023-05-21T17:26:57.936Z,99007.97
2023-05-21T17:29:26.869Z,99013.22
2023-05-21T17:31:55.659Z,99003.03
2023-05-21T17:34:27.216Z,98998.47
2023-05-21T17:36:56.261Z,98986.97
2023-05-21T17:39:24.847Z,98988.06
2023-05-21T17:41:53.716Z,98982.03
2023-05-21T17:44:22.600Z,98982.38
2023-05-21T17:46:52.151Z,98976.53
2023-05-21T17:49:20.744Z,98968.38
2023-05-21T17:51:49.417Z,98973.81
2023-05-21T17:54:17.923Z,98967.22
2023-05-21T17:56:46.697Z,98969.63
2023-05-21T17:59:15.927Z,98974.28
2023-05-21T18:01:44.450Z,98969.00
2023-05-21T18:04:14.042Z,98960.88
2023-05-21T18:06:42.586Z,98965.03
2023-05-21T18:09:16.128Z,98964.06
2023-05-21T18:11:47.765Z,98973.28
2023-05-21T18:14:16.549Z,98963.31
2023-05-21T18:16:45.156Z,98963.84
2023-05-21T18:19:14.083Z,98961.78
2023-05-21T18:21:42.615Z,98965.16
2023-05-21T18:24:11.119Z,98966.28
2023-05-21T18:26:39.552Z,98967.56
2023-05-21T18:29:08.106Z,98969.66
2023-05-21T18:31:36.572Z,98961.19
2023-05-21T18:34:05.062Z,98957.59
2023-05-21T18:36:40.353Z,98955.53
2023-05-21T18:39:10.660Z,98948.38
2023-05-21T18:41:40.707Z,98939.91
2023-05-21T18:44:09.258Z,98945.56
2023-05-21T18:46:38.464Z,98947.63
2023-05-21T18:49:06.904Z,98941.97
2023-05-21T18:51:35.348Z,98939.72
2023-05-21T18:54:03.868Z,98943.09
2023-05-21T18:56:32.415Z,98935.94
2023-05-21T18:59:00.896Z,98940.06
2023-05-21T19:01:29.645Z,98936.25
2023-05-21T19:03:58.355Z,98948.31
2023-05-21T19:06:28.622Z,98953.19
2023-05-21T19:08:57.080Z,98940.63
2023-05-21T19:11:28.441Z,98951.13
2023-05-21T19:13:56.850Z,98952.66
2023-05-21T19:16:25.294Z,98947.00
2023-05-21T19:18:53.718Z,98954.16
2023-05-21T19:21:22.243Z,98947.97
2023-05-21T19:23:53.187Z,98940.28
2023-05-21T19:26:23.667Z,98936.91
2023-05-21T19:28:54.233Z,98934.63
2023-05-21T19:31:24.000Z,98936.13
2023-05-21T19:33:52.802Z,98940.28
2023-05-21T19:36:22.307Z,98935.94
2023-05-21T19:38:52.173Z,98935.72
2023-05-21T19:41:22.941Z,98935.50
2023-05-21T19:43:52.432Z,98928.91
2023-05-21T19:46:21.278Z,98934.34
2023-05-21T19:48:50.496Z,98936.19
2023-05-21T19:51:19.322Z,98945.22
2023-05-21T19:53:47.726Z,98943.69
2023-05-21T19:56:17.052Z,98941.44
2023-05-21T19:58:48.912Z,98936.88
2023-05-21T20:01:18.264Z,98936.69
2023-05-21T20:03:46.987Z,98931.34
2023-05-21T20:06:17.841Z,98923.44
2023-05-21T20:08:46.254Z,98918.91
2023-05-21T20:11:14.683Z,98913.06
2023-05-21T20:13:43.368Z,98908.50
2023-05-21T20:16:14.161Z,98903.41
2023-05-21T20:18:42.622Z,98909.59
2023-05-21T20:21:11.442Z,98903.00
2023-05-21T20:23:40.138Z,98905.06
2023-05-21T20:26:08.727Z,98907.69
2023-05-21T20:28:38.249Z,98910.28
2023-05-21T20:31:06.943Z,98909.53
2023-05-21T20:33:40.041Z,98911.38
2023-05-21T20:36:08.999Z,98908.38
2023-05-21T20:38:38.956Z,98906.66
2023-05-21T20:41:07.523Z,98907.19
2023-05-21T20:43:38.331Z,98911.88
2023-05-21T20:46:06.935Z,98907.53
2023-05-21T20:48:36.193Z,98918.06
2023-05-21T20:51:05.423Z,98907.31
2023-05-21T20:53:34.690Z,98907.31
2023-05-21T20:56:03.093Z,98899.41
2023-05-21T20:58:32.388Z,98901.47
2023-05-21T21:01:02.736Z,98895.06
2023-05-21T21:03:34.655Z,98892.25
2023-05-21T21:06:04.042Z,98899.94
2023-05-21T21:08:32.476Z,98895.59
2023-05-21T21:11:00.896Z,98901.25
2023-05-21T21:13:29.284Z,98901.59
2023-05-21T21:15:57.685Z,98906.13
2023-05-21T21:18:26.101Z,98898.97
2023-05-21T21:20:54.971Z,98901.59
2023-05-21T21:23:25.982Z,98899.31
2023-05-21T21:25:54.383Z,98904.19
2023-05-21T21:28:22.750Z,98904.75
2023-05-21T21:30:51.293Z,98898.34
2023-05-21T21:33:19.684Z,98903.22
2023-05-21T21:35:48.120Z,98902.47
2023-05-21T21:38:16.813Z,98909.41
2023-05-21T21:40:45.476Z,98914.84
2023-05-21T21:43:13.829Z,98903.38
2023-05-21T21:45:42.299Z,98903.16
2023-05-21T21:48:10.836Z,98914.22
2023-05-21T21:50:39.407Z,98913.97
2023-05-21T21:53:07.891Z,98922.22
2023-05-21T21:55:36.307Z,98918.63
2023-05-21T21:58:04.730Z,98915.59
2023-05-21T22:00:33.120Z,98909.75
2023-05-21T22:03:01.586Z,98909.75
2023-05-21T22:05:31.745Z,98911.06
2023-05-21T22:08:00.138Z,98912.34
2023-05-21T22:10:28.554Z,98905.97
2023-05-21T22:12:57.267Z,98913.44
2023-05-21T22:15:28.298Z,98916.81
2023-05-21T22:17:56.921Z,98932.19
2023-05-21T22:20:30.208Z,98935.56
2023-05-21T22:22:58.937Z,98931.78
2023-05-21T22:25:27.381Z,98939.47
2023-05-21T22:27:55.865Z,98932.31
2023-05-21T22:30:24.320Z,98939.25
2023-05-21T22:32:52.767Z,98934.16
2023-05-21T22:35:21.285Z,98933.19
2023-05-21T22:37:49.990Z,98940.13
2023-05-21T22:40:18.773Z,98937.09
2023-05-21T22:42:48.158Z,98942.72
2023-05-21T22:45:17.010Z,98939.16
2023-05-21T22:47:45.441Z,98936.34
2023-05-21T22:50:13.971Z,98936.88
2023-05-21T22:52:42.869Z,98944.56
2023-05-21T22:55:12.519Z,98940.22
2023-05-21T22:57:41.195Z,98947.38
2023-05-21T23:00:11.617Z,98944.56
2023-05-21T23:02:40.164Z,98954.53
2023-05-21T23:05:08.978Z,98963.75
2023-05-21T23:07:37.438Z,98968.84
2023-05-21T23:10:06.306Z,98969.06
2023-05-21T23:12:34.809Z,98978.47
2023-05-21T23:15:06.330Z,98973.81
2023-05-21T23:17:35.364Z,98978.13
2023-05-21T23:20:03.935Z,98979.88
2023-05-21T23:22:32.607Z,98980.09
2023-05-21T23:25:01.050Z,98987.44
2023-05-21T23:27:30.105Z,98989.16
2023-05-21T23:29:58.461Z,98993.72
2023-05-21T23:32:27.206Z,99006.75
2023-05-21T23:34:55.603Z,99019.75
2023-05-21T23:37:24.377Z,99022.25
2023-05-21T23:39:52.913Z,99017.03
2023-05-21T23:42:21.454Z,99017.47
2023-05-21T23:44:49.932Z,99018.66
2023-05-21T23:47:18.308Z,99029.03
2023-05-21T23:49:46.803Z,99024.06
2023-05-21T23:52:18.123Z,99030.88
2023-05-21T23:54:46.956Z,99027.19
2023-05-21T23:57:15.459Z,99031.94
2023-05-21T23:59:43.916Z,99028.78
